SWA3800 KSAN-KPHX
Flight info
| Callsign | SWA3800 |
|---|---|
| Flight time | 0h 49m |
| Altitude | 33000 |
| Route | ZZOOO4 HOGGZ HYDRR1 |
| Aircraft | B738/M-SDE2E3FGHIRWXY/LB1 |
Departure
| Time | 2026-04-20 18:10 |
|---|---|
| Airport | San Diego International Airport (KSAN) |
Arrival
| Time | 2026-04-20 19:00 |
|---|---|
| Airport | Phoenix Sky Harbor International Airport (KPHX) |
| Time | Latitude | Longitude | Altitude | Speed | Heading |
|---|---|---|---|---|---|
| 2026-04-20 17:55 | 32.73371 | -117.19778 | 24 ft | 0 kts | 256° |
| 2026-04-20 18:00 | 32.73377 | -117.19753 | 24 ft | 4 kts | 252° |
| 2026-04-20 18:01 | 32.73385 | -117.19723 | 23 ft | 4 kts | 242° |
| 2026-04-20 18:01 | 32.73401 | -117.19699 | 22 ft | 4 kts | 212° |
| 2026-04-20 18:01 | 32.73422 | -117.19689 | 22 ft | 1 kts | 193° |
| 2026-04-20 18:01 | 32.73427 | -117.19687 | 22 ft | 0 kts | 193° |
| 2026-04-20 18:05 | 32.73410 | -117.19676 | 23 ft | 4 kts | 123° |
| 2026-04-20 18:05 | 32.73402 | -117.19633 | 22 ft | 7 kts | 97° |
| 2026-04-20 18:05 | 32.73392 | -117.19558 | 22 ft | 11 kts | 102° |
| 2026-04-20 18:06 | 32.73369 | -117.19452 | 24 ft | 15 kts | 104° |
| 2026-04-20 18:06 | 32.73336 | -117.19313 | 21 ft | 19 kts | 105° |
| 2026-04-20 18:06 | 32.73296 | -117.19145 | 23 ft | 23 kts | 106° |
| 2026-04-20 18:06 | 32.73249 | -117.18953 | 22 ft | 26 kts | 106° |
| 2026-04-20 18:07 | 32.73198 | -117.18742 | 17 ft | 28 kts | 105° |
| 2026-04-20 18:07 | 32.73143 | -117.18513 | 19 ft | 29 kts | 106° |
| 2026-04-20 18:07 | 32.73089 | -117.18294 | 19 ft | 27 kts | 106° |
| 2026-04-20 18:07 | 32.73039 | -117.18088 | 20 ft | 25 kts | 106° |
| 2026-04-20 18:08 | 32.72994 | -117.17898 | 20 ft | 22 kts | 106° |
| 2026-04-20 18:08 | 32.72959 | -117.17769 | 19 ft | 11 kts | 108° |
| 2026-04-20 18:08 | 32.72950 | -117.17712 | 19 ft | 6 kts | 90° |
| 2026-04-20 18:08 | 32.72957 | -117.17668 | 19 ft | 5 kts | 73° |
| 2026-04-20 18:09 | 32.72975 | -117.17623 | 20 ft | 8 kts | 54° |
| 2026-04-20 18:09 | 32.73030 | -117.17615 | 19 ft | 9 kts | 302° |
| 2026-04-20 18:09 | 32.73052 | -117.17705 | 19 ft | 15 kts | 286° |
| 2026-04-20 18:09 | 32.73154 | -117.18128 | 19 ft | 101 kts | 286° |
| 2026-04-20 18:10 | 32.73422 | -117.19231 | 213 ft | 164 kts | 287° |
| 2026-04-20 18:10 | 32.73765 | -117.20593 | 1193 ft | 176 kts | 285° |
| 2026-04-20 18:10 | 32.74106 | -117.22040 | 2210 ft | 195 kts | 284° |
| 2026-04-20 18:10 | 32.74495 | -117.23693 | 2631 ft | 222 kts | 285° |
| 2026-04-20 18:11 | 32.74933 | -117.25501 | 3154 ft | 235 kts | 285° |
| 2026-04-20 18:11 | 32.75404 | -117.27407 | 3771 ft | 244 kts | 286° |
| 2026-04-20 18:11 | 32.75902 | -117.29360 | 4445 ft | 249 kts | 285° |
| 2026-04-20 18:11 | 32.76377 | -117.31352 | 5145 ft | 252 kts | 283° |
| 2026-04-20 18:12 | 32.76449 | -117.33427 | 5792 ft | 254 kts | 254° |
| 2026-04-20 18:12 | 32.75631 | -117.35247 | 6578 ft | 250 kts | 224° |
| 2026-04-20 18:12 | 32.74185 | -117.36349 | 7388 ft | 250 kts | 195° |
| 2026-04-20 18:12 | 32.72463 | -117.36469 | 8338 ft | 251 kts | 168° |
| 2026-04-20 18:13 | 32.70894 | -117.35567 | 9256 ft | 256 kts | 141° |
| 2026-04-20 18:13 | 32.69646 | -117.34023 | 10128 ft | 263 kts | 131° |
| 2026-04-20 18:13 | 32.68488 | -117.32321 | 10943 ft | 267 kts | 130° |
| 2026-04-20 18:13 | 32.67319 | -117.30590 | 11792 ft | 271 kts | 131° |
| 2026-04-20 18:14 | 32.66119 | -117.28847 | 12633 ft | 275 kts | 132° |
| 2026-04-20 18:14 | 32.65309 | -117.27683 | 13190 ft | 278 kts | 133° |
| 2026-04-20 18:14 | 32.64068 | -117.25907 | 14020 ft | 282 kts | 132° |
| 2026-04-20 18:14 | 32.63099 | -117.23864 | 14682 ft | 296 kts | 108° |
| 2026-04-20 18:15 | 32.62695 | -117.20471 | 15025 ft | 332 kts | 98° |
| 2026-04-20 18:15 | 32.62550 | -117.18581 | 15170 ft | 349 kts | 98° |
| 2026-04-20 18:15 | 32.62314 | -117.15634 | 15471 ft | 367 kts | 98° |
| 2026-04-20 18:15 | 32.62053 | -117.12590 | 16095 ft | 374 kts | 97° |
| 2026-04-20 18:16 | 32.62160 | -117.09493 | 16811 ft | 382 kts | 77° |
| 2026-04-20 18:16 | 32.63054 | -117.06509 | 17611 ft | 385 kts | 69° |
| 2026-04-20 18:16 | 32.64074 | -117.03555 | 18308 ft | 390 kts | 69° |
| 2026-04-20 18:16 | 32.65095 | -117.00546 | 18900 ft | 395 kts | 69° |
| 2026-04-20 18:17 | 32.66103 | -116.97495 | 19517 ft | 399 kts | 70° |
| 2026-04-20 18:17 | 32.66792 | -116.94309 | 20118 ft | 401 kts | 88° |
| 2026-04-20 18:17 | 32.66854 | -116.91004 | 20789 ft | 402 kts | 91° |
| 2026-04-20 18:17 | 32.66875 | -116.87667 | 21388 ft | 407 kts | 91° |
| 2026-04-20 18:18 | 32.66915 | -116.84289 | 21939 ft | 412 kts | 90° |
| 2026-04-20 18:18 | 32.66981 | -116.80869 | 22499 ft | 417 kts | 90° |
| 2026-04-20 18:18 | 32.67060 | -116.77413 | 23083 ft | 421 kts | 89° |
| 2026-04-20 18:18 | 32.67136 | -116.73928 | 23651 ft | 425 kts | 90° |
| 2026-04-20 18:19 | 32.67119 | -116.70412 | 24124 ft | 428 kts | 92° |
| 2026-04-20 18:19 | 32.67045 | -116.66867 | 24636 ft | 430 kts | 93° |
| 2026-04-20 18:19 | 32.66959 | -116.63305 | 25144 ft | 433 kts | 93° |
| 2026-04-20 18:19 | 32.66881 | -116.59775 | 25633 ft | 435 kts | 93° |
| 2026-04-20 18:20 | 32.66811 | -116.56169 | 26094 ft | 439 kts | 92° |
| 2026-04-20 18:20 | 32.66747 | -116.52535 | 26559 ft | 442 kts | 92° |
| 2026-04-20 18:20 | 32.66688 | -116.48880 | 27010 ft | 445 kts | 92° |
| 2026-04-20 18:20 | 32.66626 | -116.45197 | 27467 ft | 447 kts | 92° |
| 2026-04-20 18:21 | 32.66589 | -116.41495 | 27906 ft | 451 kts | 90° |
| 2026-04-20 18:21 | 32.66804 | -116.37773 | 28326 ft | 454 kts | 85° |
| 2026-04-20 18:21 | 32.67176 | -116.34032 | 28764 ft | 457 kts | 84° |
| 2026-04-20 18:21 | 32.67589 | -116.30297 | 29301 ft | 457 kts | 84° |
| 2026-04-20 18:22 | 32.67988 | -116.26567 | 29950 ft | 454 kts | 84° |
| 2026-04-20 18:22 | 32.68357 | -116.22860 | 30545 ft | 450 kts | 84° |
| 2026-04-20 18:22 | 32.68701 | -116.19182 | 31088 ft | 447 kts | 85° |
| 2026-04-20 18:22 | 32.69030 | -116.15516 | 31549 ft | 447 kts | 85° |
| 2026-04-20 18:23 | 32.69354 | -116.11851 | 31952 ft | 447 kts | 85° |
| 2026-04-20 18:23 | 32.69678 | -116.08184 | 32417 ft | 446 kts | 85° |
| 2026-04-20 18:23 | 32.70001 | -116.04533 | 32928 ft | 443 kts | 85° |
| 2026-04-20 18:23 | 32.70327 | -116.00881 | 32998 ft | 448 kts | 85° |
| 2026-04-20 18:24 | 32.70995 | -115.93665 | 33007 ft | 446 kts | 84° |
| 2026-04-20 18:24 | 32.71670 | -115.86409 | 33001 ft | 441 kts | 84° |
| 2026-04-20 18:25 | 32.72337 | -115.79151 | 33005 ft | 443 kts | 84° |
| 2026-04-20 18:25 | 32.73000 | -115.71865 | 32996 ft | 445 kts | 85° |
| 2026-04-20 18:26 | 32.73661 | -115.64548 | 32988 ft | 446 kts | 85° |
| 2026-04-20 18:26 | 32.74319 | -115.57224 | 32977 ft | 446 kts | 84° |
| 2026-04-20 18:27 | 32.74956 | -115.49898 | 32978 ft | 445 kts | 86° |
| 2026-04-20 18:27 | 32.75209 | -115.42559 | 32980 ft | 444 kts | 90° |
| 2026-04-20 18:28 | 32.75312 | -115.35225 | 32976 ft | 444 kts | 90° |
| 2026-04-20 18:28 | 32.75440 | -115.27904 | 33002 ft | 443 kts | 89° |
| 2026-04-20 18:29 | 32.75598 | -115.20604 | 33004 ft | 442 kts | 89° |
| 2026-04-20 18:29 | 32.75761 | -115.13301 | 33001 ft | 442 kts | 89° |
| 2026-04-20 18:30 | 32.75920 | -115.06004 | 32997 ft | 442 kts | 89° |
| 2026-04-20 18:30 | 32.76072 | -114.98789 | 32987 ft | 443 kts | 88° |
| 2026-04-20 18:31 | 32.76222 | -114.91464 | 32987 ft | 444 kts | 89° |
| 2026-04-20 18:31 | 32.76367 | -114.84126 | 32986 ft | 445 kts | 89° |
| 2026-04-20 18:32 | 32.76508 | -114.76818 | 32995 ft | 446 kts | 89° |
| 2026-04-20 18:32 | 32.76646 | -114.69447 | 32998 ft | 446 kts | 89° |
| 2026-04-20 18:33 | 32.76780 | -114.62072 | 32997 ft | 446 kts | 89° |
| 2026-04-20 18:33 | 32.76899 | -114.54711 | 32995 ft | 446 kts | 89° |
| 2026-04-20 18:34 | 32.77001 | -114.47352 | 32658 ft | 445 kts | 89° |
| 2026-04-20 18:34 | 32.77050 | -114.43703 | 32321 ft | 438 kts | 89° |
| 2026-04-20 18:34 | 32.77098 | -114.40099 | 31913 ft | 435 kts | 89° |
| 2026-04-20 18:35 | 32.77145 | -114.36519 | 31493 ft | 431 kts | 89° |
| 2026-04-20 18:35 | 32.77191 | -114.32970 | 31079 ft | 429 kts | 89° |
| 2026-04-20 18:35 | 32.77235 | -114.29486 | 30691 ft | 426 kts | 89° |
| 2026-04-20 18:35 | 32.77279 | -114.25978 | 30295 ft | 424 kts | 89° |
| 2026-04-20 18:36 | 32.77322 | -114.22486 | 29878 ft | 421 kts | 89° |
| 2026-04-20 18:36 | 32.77363 | -114.19012 | 29407 ft | 419 kts | 89° |
| 2026-04-20 18:36 | 32.77403 | -114.15568 | 28966 ft | 415 kts | 89° |
| 2026-04-20 18:36 | 32.77442 | -114.12152 | 28555 ft | 412 kts | 89° |
| 2026-04-20 18:37 | 32.77480 | -114.08764 | 28137 ft | 409 kts | 89° |
| 2026-04-20 18:37 | 32.77563 | -114.05405 | 27803 ft | 404 kts | 84° |
| 2026-04-20 18:37 | 32.77863 | -114.02121 | 27559 ft | 397 kts | 81° |
| 2026-04-20 18:37 | 32.78249 | -113.98954 | 27319 ft | 397 kts | 80° |
| 2026-04-20 18:38 | 32.78664 | -113.95684 | 27081 ft | 404 kts | 81° |
| 2026-04-20 18:38 | 32.79070 | -113.92362 | 26820 ft | 407 kts | 81° |
| 2026-04-20 18:38 | 32.79455 | -113.89044 | 26554 ft | 404 kts | 81° |
| 2026-04-20 18:38 | 32.79823 | -113.85747 | 26289 ft | 401 kts | 82° |
| 2026-04-20 18:39 | 32.80180 | -113.82473 | 26039 ft | 398 kts | 82° |
| 2026-04-20 18:39 | 32.80532 | -113.79218 | 25781 ft | 396 kts | 82° |
| 2026-04-20 18:39 | 32.80882 | -113.75978 | 25536 ft | 394 kts | 82° |
| 2026-04-20 18:39 | 32.81229 | -113.72756 | 25291 ft | 392 kts | 81° |
| 2026-04-20 18:40 | 32.81747 | -113.69596 | 25013 ft | 389 kts | 67° |
| 2026-04-20 18:40 | 32.83048 | -113.66813 | 24673 ft | 385 kts | 49° |
| 2026-04-20 18:40 | 32.84793 | -113.64403 | 24314 ft | 386 kts | 46° |
| 2026-04-20 18:40 | 32.86595 | -113.62035 | 23923 ft | 385 kts | 45° |
| 2026-04-20 18:41 | 32.88398 | -113.59678 | 23527 ft | 385 kts | 45° |
| 2026-04-20 18:41 | 32.90164 | -113.57352 | 23095 ft | 382 kts | 46° |
| 2026-04-20 18:41 | 32.91949 | -113.54978 | 22679 ft | 378 kts | 46° |
| 2026-04-20 18:41 | 32.93690 | -113.52646 | 22302 ft | 375 kts | 47° |
| 2026-04-20 18:42 | 32.95408 | -113.50334 | 21934 ft | 371 kts | 47° |
| 2026-04-20 18:42 | 32.97082 | -113.48075 | 21571 ft | 367 kts | 47° |
| 2026-04-20 18:42 | 32.98763 | -113.45805 | 21213 ft | 364 kts | 47° |
| 2026-04-20 18:42 | 33.00424 | -113.43561 | 20861 ft | 361 kts | 47° |
| 2026-04-20 18:43 | 33.02084 | -113.41318 | 20508 ft | 359 kts | 47° |
| 2026-04-20 18:43 | 33.03729 | -113.39093 | 20155 ft | 357 kts | 47° |
| 2026-04-20 18:43 | 33.05366 | -113.36879 | 19805 ft | 355 kts | 47° |
| 2026-04-20 18:43 | 33.06994 | -113.34678 | 19455 ft | 353 kts | 48° |
| 2026-04-20 18:44 | 33.08615 | -113.32489 | 19117 ft | 352 kts | 48° |
| 2026-04-20 18:44 | 33.10233 | -113.30302 | 18768 ft | 351 kts | 48° |
| 2026-04-20 18:44 | 33.11846 | -113.28121 | 18416 ft | 350 kts | 48° |
| 2026-04-20 18:44 | 33.13456 | -113.25942 | 18040 ft | 349 kts | 49° |
| 2026-04-20 18:45 | 33.15056 | -113.23775 | 17659 ft | 348 kts | 49° |
| 2026-04-20 18:45 | 33.16650 | -113.21615 | 17304 ft | 346 kts | 49° |
| 2026-04-20 18:45 | 33.18235 | -113.19466 | 16950 ft | 344 kts | 49° |
| 2026-04-20 18:45 | 33.19810 | -113.17328 | 16610 ft | 342 kts | 49° |
| 2026-04-20 18:46 | 33.21377 | -113.15201 | 16278 ft | 340 kts | 49° |
| 2026-04-20 18:46 | 33.22937 | -113.13081 | 15937 ft | 339 kts | 49° |
| 2026-04-20 18:46 | 33.24489 | -113.10972 | 15610 ft | 338 kts | 49° |
| 2026-04-20 18:46 | 33.26012 | -113.08899 | 15275 ft | 336 kts | 50° |
| 2026-04-20 18:47 | 33.27202 | -113.06529 | 14920 ft | 333 kts | 73° |
| 2026-04-20 18:47 | 33.27611 | -113.03836 | 14650 ft | 328 kts | 87° |
| 2026-04-20 18:47 | 33.27694 | -113.01120 | 14342 ft | 326 kts | 90° |
| 2026-04-20 18:47 | 33.27723 | -112.98479 | 14039 ft | 325 kts | 91° |
| 2026-04-20 18:48 | 33.27752 | -112.95777 | 13721 ft | 324 kts | 90° |
| 2026-04-20 18:48 | 33.27795 | -112.93096 | 13377 ft | 322 kts | 90° |
| 2026-04-20 18:48 | 33.27851 | -112.90428 | 13043 ft | 320 kts | 90° |
| 2026-04-20 18:48 | 33.27914 | -112.87775 | 12721 ft | 318 kts | 90° |
| 2026-04-20 18:49 | 33.27977 | -112.85151 | 12415 ft | 315 kts | 90° |
| 2026-04-20 18:49 | 33.28073 | -112.82554 | 12104 ft | 312 kts | 84° |
| 2026-04-20 18:49 | 33.28729 | -112.80090 | 11818 ft | 311 kts | 67° |
| 2026-04-20 18:49 | 33.29644 | -112.77769 | 11520 ft | 307 kts | 66° |
| 2026-04-20 18:50 | 33.30530 | -112.75496 | 11241 ft | 304 kts | 67° |
| 2026-04-20 18:50 | 33.31412 | -112.73183 | 10946 ft | 300 kts | 68° |
| 2026-04-20 18:50 | 33.32249 | -112.70947 | 10681 ft | 297 kts | 68° |
| 2026-04-20 18:50 | 33.33092 | -112.68702 | 10394 ft | 295 kts | 68° |
| 2026-04-20 18:51 | 33.33940 | -112.66476 | 10113 ft | 293 kts | 68° |
| 2026-04-20 18:51 | 33.34783 | -112.64276 | 9945 ft | 286 kts | 68° |
| 2026-04-20 18:51 | 33.35601 | -112.62145 | 9606 ft | 285 kts | 68° |
| 2026-04-20 18:51 | 33.36424 | -112.59988 | 9279 ft | 285 kts | 68° |
| 2026-04-20 18:52 | 33.37243 | -112.57839 | 8980 ft | 283 kts | 68° |
| 2026-04-20 18:52 | 33.38057 | -112.55703 | 8699 ft | 281 kts | 68° |
| 2026-04-20 18:52 | 33.38864 | -112.53582 | 8420 ft | 279 kts | 68° |
| 2026-04-20 18:52 | 33.39666 | -112.51476 | 8151 ft | 277 kts | 67° |
| 2026-04-20 18:53 | 33.40455 | -112.49379 | 7903 ft | 276 kts | 68° |
| 2026-04-20 18:53 | 33.41200 | -112.47271 | 7624 ft | 275 kts | 69° |
| 2026-04-20 18:53 | 33.41936 | -112.45162 | 7345 ft | 274 kts | 68° |
| 2026-04-20 18:53 | 33.42660 | -112.43055 | 7069 ft | 273 kts | 72° |
| 2026-04-20 18:54 | 33.42927 | -112.40831 | 6755 ft | 270 kts | 92° |
| 2026-04-20 18:54 | 33.42896 | -112.38585 | 6470 ft | 270 kts | 91° |
| 2026-04-20 18:54 | 33.42882 | -112.36341 | 6127 ft | 268 kts | 91° |
| 2026-04-20 18:54 | 33.42874 | -112.34124 | 5814 ft | 264 kts | 91° |
| 2026-04-20 18:55 | 33.42872 | -112.31937 | 5499 ft | 261 kts | 91° |
| 2026-04-20 18:55 | 33.42874 | -112.29779 | 5208 ft | 258 kts | 91° |
| 2026-04-20 18:55 | 33.42924 | -112.27648 | 4896 ft | 255 kts | 83° |
| 2026-04-20 18:55 | 33.43291 | -112.25583 | 4581 ft | 251 kts | 78° |
| 2026-04-20 18:56 | 33.43670 | -112.23586 | 4276 ft | 247 kts | 78° |
| 2026-04-20 18:56 | 33.44021 | -112.21596 | 4018 ft | 240 kts | 83° |
| 2026-04-20 18:56 | 33.44122 | -112.19631 | 3776 ft | 235 kts | 91° |
| 2026-04-20 18:56 | 33.44098 | -112.17676 | 3499 ft | 234 kts | 91° |
| 2026-04-20 18:57 | 33.44084 | -112.15745 | 3209 ft | 223 kts | 90° |
| 2026-04-20 18:57 | 33.44083 | -112.13942 | 2919 ft | 210 kts | 90° |
| 2026-04-20 18:57 | 33.44083 | -112.12273 | 2648 ft | 195 kts | 92° |
| 2026-04-20 18:57 | 33.44081 | -112.10725 | 2403 ft | 177 kts | 91° |
| 2026-04-20 18:58 | 33.44080 | -112.09324 | 2210 ft | 160 kts | 91° |
| 2026-04-20 18:58 | 33.44080 | -112.08009 | 2024 ft | 158 kts | 90° |
| 2026-04-20 18:58 | 33.44080 | -112.06703 | 1821 ft | 156 kts | 90° |
| 2026-04-20 18:58 | 33.44080 | -112.05416 | 1628 ft | 154 kts | 90° |
| 2026-04-20 18:59 | 33.44081 | -112.04121 | 1391 ft | 167 kts | 89° |
| 2026-04-20 18:59 | 33.44087 | -112.02730 | 1189 ft | 164 kts | 90° |
| 2026-04-20 18:59 | 33.44084 | -112.01448 | 1131 ft | 143 kts | 90° |
| 2026-04-20 18:59 | 33.44086 | -112.00406 | 1128 ft | 104 kts | 90° |
| 2026-04-20 19:00 | 33.44040 | -112.00123 | 1130 ft | 12 kts | 160° |
| 2026-04-20 19:00 | 33.43976 | -112.00177 | 1123 ft | 14 kts | 265° |
| 2026-04-20 19:00 | 33.43976 | -112.00291 | 1119 ft | 14 kts | 269° |
| 2026-04-20 19:00 | 33.43936 | -112.00376 | 1120 ft | 12 kts | 187° |
| 2026-04-20 19:01 | 33.43898 | -112.00351 | 1120 ft | 6 kts | 155° |
| 2026-04-20 19:01 | 33.43847 | -112.00361 | 1116 ft | 11 kts | 198° |
| 2026-04-20 19:01 | 33.43741 | -112.00379 | 1123 ft | 19 kts | 182° |
| 2026-04-20 19:01 | 33.43604 | -112.00380 | 1121 ft | 19 kts | 179° |
| 2026-04-20 19:02 | 33.43471 | -112.00381 | 1118 ft | 19 kts | 180° |
| 2026-04-20 19:02 | 33.43344 | -112.00380 | 1118 ft | 14 kts | 179° |
| 2026-04-20 19:02 | 33.43291 | -112.00355 | 1121 ft | 13 kts | 131° |
| 2026-04-20 19:02 | 33.43284 | -112.00329 | 1123 ft | 0 kts | 88° |
| 2026-04-20 19:03 | 33.43284 | -112.00326 | 1123 ft | 1 kts | 87° |
| 2026-04-20 19:03 | 33.43296 | -112.00316 | 1119 ft | 4 kts | 26° |
| 2026-04-20 19:03 | 33.43348 | -112.00312 | 1118 ft | 9 kts | 353° |
| 2026-04-20 19:03 | 33.43375 | -112.00315 | 1122 ft | 4 kts | 2° |
| 2026-04-20 19:04 | 33.43399 | -112.00314 | 1118 ft | 1 kts | 2° |
| 2026-04-20 19:04 | 33.43422 | -112.00300 | 1123 ft | 4 kts | 45° |
| 2026-04-20 19:04 | 33.43429 | -112.00281 | 1123 ft | 1 kts | 76° |
| 2026-04-20 19:04 | 33.43430 | -112.00272 | 1117 ft | 1 kts | 79° |
| 2026-04-20 19:05 | 33.43431 | -112.00268 | 1117 ft | 0 kts | 84° |